Time;durP1;ratioP1;P1;durP2;ratioP2;P2;SDS_P1;SDS_P2;PMS_P1;PMS_P2;Temp;Humidity;BMP_temperature;BMP_pressure;BME280_temperature;BME280_humidity;BME280_pressure;Samples;Min_cycle;Max_cycle;Signal;HPM_P1;HPM_P2
2022/02/14 00:01:11;;;;;;;15.70;5.93;;;;;;;6.01;100.00;99789.44;7396558;19;20396;-52
2022/02/14 00:03:41;;;;;;;7.27;4.17;;;;;;;6.07;100.00;99778.66;7394385;19;20531;-53
2022/02/14 00:06:12;;;;;;;8.00;5.00;;;;;;;6.05;100.00;99776.00;7393427;19;20395;-58
2022/02/14 00:08:42;;;;;;;10.07;5.77;;;;;;;6.05;100.00;99781.13;7387455;19;20434;-57
2022/02/14 00:11:15;;;;;;;8.10;4.47;;;;;;;6.04;100.00;99770.81;7389339;19;20414;-56
2022/02/14 00:13:45;;;;;;;7.60;4.00;;;;;;;5.93;100.00;99778.88;7390299;19;20437;-55
2022/02/14 00:16:15;;;;;;;17.10;4.83;;;;;;;5.97;100.00;99772.22;7386205;19;20391;-55
2022/02/14 00:18:44;;;;;;;8.43;4.87;;;;;;;5.94;100.00;99765.28;7387905;19;20443;-54
2022/02/14 00:21:16;;;;;;;12.57;5.00;;;;;;;5.88;100.00;99757.31;7385984;19;20391;-57
2022/02/14 00:23:45;;;;;;;11.20;5.90;;;;;;;5.86;100.00;99755.50;7388478;19;20390;-52
2022/02/14 00:26:18;;;;;;;8.27;5.10;;;;;;;5.80;100.00;99753.53;7385795;19;20396;-58
2022/02/14 00:28:47;;;;;;;9.43;4.80;;;;;;;5.81;100.00;99748.47;7387438;19;20394;-51
2022/02/14 00:31:17;;;;;;;10.37;4.77;;;;;;;5.74;100.00;99743.03;7386183;19;20495;-49
2022/02/14 00:33:46;;;;;;;9.73;4.67;;;;;;;5.65;100.00;99746.03;7388908;19;20379;-52
2022/02/14 00:36:16;;;;;;;10.57;5.00;;;;;;;5.68;100.00;99735.94;7386518;19;20387;-51
2022/02/14 00:38:45;;;;;;;12.87;4.97;;;;;;;5.68;100.00;99733.38;7388190;19;20392;-51
2022/02/14 00:41:17;;;;;;;11.23;4.80;;;;;;;5.68;100.00;99729.16;7385270;19;20393;-54
2022/02/14 00:43:52;;;;;;;10.27;4.80;;;;;;;5.76;100.00;99726.94;7389299;19;20411;-52
2022/02/14 00:46:21;;;;;;;12.27;5.30;;;;;;;5.77;100.00;99718.44;7386953;19;20388;-55
2022/02/14 00:48:51;;;;;;;9.13;4.50;;;;;;;5.72;100.00;99725.03;7389122;19;20390;-59
2022/02/14 00:51:20;;;;;;;6.87;4.40;;;;;;;5.76;100.00;99719.25;7390587;19;20396;-57
2022/02/14 00:53:50;;;;;;;10.30;5.20;;;;;;;5.73;100.00;99716.53;7397140;19;20379;-54
2022/02/14 00:56:22;;;;;;;10.07;4.67;;;;;;;5.64;100.00;99706.75;7391837;19;20391;-52
2022/02/14 00:58:51;;;;;;;10.10;4.90;;;;;;;5.65;100.00;99711.06;7397128;19;20395;-51
2022/02/14 01:01:21;;;;;;;11.20;4.50;;;;;;;5.66;100.00;99699.16;7394824;19;20391;-51
2022/02/14 01:03:51;;;;;;;18.00;5.27;;;;;;;5.66;100.00;99696.59;7397655;19;20395;-50
2022/02/14 01:06:21;;;;;;;10.53;4.67;;;;;;;5.60;100.00;99692.09;7395158;19;20384;-54
2022/02/14 01:08:50;;;;;;;9.20;4.80;;;;;;;5.64;100.00;99693.13;7396364;19;20379;-51
2022/02/14 01:11:22;;;;;;;10.63;4.60;;;;;;;5.65;100.00;99692.31;7394993;19;20379;-56
2022/02/14 01:13:52;;;;;;;12.37;5.20;;;;;;;5.64;100.00;99685.44;7394548;19;20389;-58
2022/02/14 01:16:22;;;;;;;10.73;4.13;;;;;;;5.65;100.00;99676.94;7393962;19;20384;-55
2022/02/14 01:18:52;;;;;;;11.17;3.97;;;;;;;5.66;100.00;99673.56;7396040;19;20401;-48
2022/02/14 01:21:21;;;;;;;8.70;4.77;;;;;;;5.71;100.00;99677.22;7394499;19;20459;-56
2022/02/14 01:23:51;;;;;;;14.20;4.83;;;;;;;5.73;100.00;99670.47;7396830;19;20470;-57
2022/02/14 01:26:23;;;;;;;9.10;4.30;;;;;;;5.75;100.00;99673.97;7394511;19;20394;-55
2022/02/14 01:28:52;;;;;;;13.63;4.97;;;;;;;5.75;100.00;99661.16;7395441;19;20395;-54
2022/02/14 01:31:22;;;;;;;11.17;4.63;;;;;;;5.77;100.00;99664.69;7395215;19;21028;-57
2022/02/14 01:33:51;;;;;;;8.90;4.80;;;;;;;5.80;100.00;99671.63;7398289;19;20750;-57
2022/02/14 01:36:21;;;;;;;6.70;3.97;;;;;;;5.77;100.00;99661.25;7394117;19;20391;-54
2022/02/14 01:38:51;;;;;;;10.50;4.83;;;;;;;5.77;100.00;99651.88;7395683;19;20398;-56
2022/02/14 01:41:23;;;;;;;12.93;4.83;;;;;;;5.74;100.00;99651.75;7392149;19;20637;-52
2022/02/14 01:43:52;;;;;;;12.03;4.63;;;;;;;5.70;100.00;99649.88;7396281;19;20404;-56
2022/02/14 01:46:22;;;;;;;9.50;5.03;;;;;;;5.71;100.00;99648.16;7394194;19;20387;-54
2022/02/14 01:48:52;;;;;;;10.47;4.77;;;;;;;5.64;100.00;99645.34;7395781;19;20461;-51
2022/02/14 01:51:23;;;;;;;9.60;4.57;;;;;;;5.64;100.00;99634.25;7397091;19;21039;-53
2022/02/14 01:53:52;;;;;;;9.07;4.73;;;;;;;5.66;100.00;99642.84;7394227;19;20393;-52
2022/02/14 01:56:24;;;;;;;12.50;4.87;;;;;;;5.65;100.00;99636.00;7394325;19;20738;-53
2022/02/14 01:58:54;;;;;;;10.00;4.23;;;;;;;5.64;100.00;99639.38;7395140;19;20739;-54
2022/02/14 02:01:23;;;;;;;9.97;5.23;;;;;;;5.70;100.00;99625.94;7393165;19;20384;-51
2022/02/14 02:03:53;;;;;;;8.10;4.63;;;;;;;5.71;100.00;99622.56;7393741;19;20383;-53
2022/02/14 02:06:23;;;;;;;12.00;4.30;;;;;;;5.72;100.00;99622.66;7393734;19;20387;-55
2022/02/14 02:08:52;;;;;;;9.20;4.30;;;;;;;5.74;100.00;99615.03;7394479;19;20387;-54
2022/02/14 02:14:06;;;;;;;8.03;4.63;;;;;;;5.77;100.00;99612.59;7393983;19;20394;-55
2022/02/14 02:16:36;;;;;;;6.90;3.67;;;;;;;5.79;100.00;99609.31;7392246;19;20417;-54
2022/02/14 02:19:05;;;;;;;11.60;4.47;;;;;;;5.84;100.00;99599.25;7394362;19;20402;-56
2022/02/14 02:21:35;;;;;;;9.53;4.33;;;;;;;5.85;100.00;99589.91;7393119;19;20529;-52
2022/02/14 02:24:06;;;;;;;10.60;4.73;;;;;;;5.86;100.00;99595.09;7395623;19;20440;-55
2022/02/14 02:26:39;;;;;;;11.47;4.77;;;;;;;5.90;100.00;99596.09;7389887;19;20419;-53
2022/02/14 02:29:09;;;;;;;7.57;4.20;;;;;;;5.87;100.00;99586.59;7394255;19;20421;-50
2022/02/14 02:31:38;;;;;;;9.20;3.50;;;;;;;5.92;100.00;99581.66;7391960;19;20429;-49
2022/02/14 02:34:08;;;;;;;9.17;3.87;;;;;;;6.00;100.00;99577.72;7393710;19;20906;-50
2022/02/14 02:36:58;;;;;;;8.83;3.07;;;;;;;6.01;100.00;99579.47;7392368;19;20418;-51
2022/02/14 02:39:29;;;;;;;12.33;4.00;;;;;;;5.97;100.00;99569.94;7393635;19;20419;-53
2022/02/14 02:42:02;;;;;;;11.47;4.23;;;;;;;5.94;100.00;99567.22;7391260;19;20963;-51
2022/02/14 02:44:32;;;;;;;10.53;4.00;;;;;;;5.90;100.00;99560.25;7394579;19;20408;-58
2022/02/14 02:47:05;;;;;;;9.67;4.00;;;;;;;5.97;100.00;99562.25;7391587;19;20948;-53
2022/02/14 02:49:35;;;;;;;7.77;4.40;;;;;;;5.98;100.00;99555.41;7393266;19;20643;-56
2022/02/14 02:52:06;;;;;;;8.00;3.67;;;;;;;5.98;100.00;99548.63;7383808;19;20422;-55
2022/02/14 02:54:36;;;;;;;9.70;4.70;;;;;;;6.01;100.00;99555.56;7392935;19;20392;-51
2022/02/14 02:57:08;;;;;;;6.63;3.80;;;;;;;5.92;100.00;99553.50;7389767;19;20765;-52
2022/02/14 02:59:43;;;;;;;9.43;4.20;;;;;;;5.91;100.00;99550.06;7396337;19;20510;-51
2022/02/14 03:02:13;;;;;;;8.73;3.70;;;;;;;5.88;100.00;99538.81;7391232;19;20414;-56
2022/02/14 03:04:43;;;;;;;11.73;4.73;;;;;;;5.84;100.00;99534.41;7394382;19;20851;-51
2022/02/14 03:07:13;;;;;;;15.77;4.53;;;;;;;5.81;100.00;99536.00;7390816;19;20426;-49
2022/02/14 03:09:42;;;;;;;9.30;4.13;;;;;;;5.76;100.00;99531.50;7392206;19;20410;-56
2022/02/14 03:12:15;;;;;;;7.87;4.13;;;;;;;5.76;100.00;99527.28;7390935;19;20502;-49
2022/02/14 03:14:44;;;;;;;18.83;4.10;;;;;;;5.72;100.00;99517.72;7391402;19;20391;-57
2022/02/14 03:17:16;;;;;;;10.50;4.27;;;;;;;5.78;100.00;99515.41;7390352;19;20417;-51
2022/02/14 03:19:46;;;;;;;8.07;4.17;;;;;;;5.85;100.00;99506.28;7392319;19;20427;-54
2022/02/14 03:22:16;;;;;;;8.57;3.60;;;;;;;5.84;100.00;99509.66;7389675;19;20952;-55
2022/02/14 03:24:45;;;;;;;10.20;3.70;;;;;;;5.85;100.00;99500.31;7394069;19;20383;-52
2022/02/14 03:27:17;;;;;;;10.57;4.23;;;;;;;5.85;100.00;99508.84;7388999;19;20417;-52
2022/02/14 03:29:47;;;;;;;8.83;4.00;;;;;;;5.79;100.00;99506.91;7394882;19;20471;-56
2022/02/14 03:32:16;;;;;;;8.17;3.70;;;;;;;5.79;100.00;99506.03;7389236;19;20422;-51
2022/02/14 03:34:46;;;;;;;11.37;3.97;;;;;;;5.78;100.00;99511.97;7391694;19;20387;-53
2022/02/14 03:37:15;;;;;;;10.70;3.83;;;;;;;5.80;100.00;99492.44;7389841;19;20414;-57
2022/02/14 03:39:45;;;;;;;10.77;5.00;;;;;;;5.87;100.00;99497.00;7391473;19;20424;-54
2022/02/14 03:42:17;;;;;;;11.00;4.40;;;;;;;5.80;100.00;99507.78;7389759;19;20418;-49
2022/02/14 03:44:47;;;;;;;7.93;4.20;;;;;;;5.84;100.00;99488.31;7392917;19;20391;-52
2022/02/14 03:47:16;;;;;;;12.13;3.50;;;;;;;5.86;100.00;99487.56;7389815;19;20980;-51
2022/02/14 03:49:45;;;;;;;9.83;4.33;;;;;;;5.83;100.00;99494.25;7391304;19;20765;-51
2022/02/14 03:52:15;;;;;;;11.90;3.40;;;;;;;5.85;100.00;99490.06;7389560;19;20415;-48
2022/02/14 03:54:44;;;;;;;11.23;3.80;;;;;;;5.91;100.00;99487.75;7391454;19;20396;-51
2022/02/14 03:57:16;;;;;;;10.30;4.23;;;;;;;5.92;100.00;99482.69;7386993;19;20453;-50
2022/02/14 03:59:46;;;;;;;18.10;4.40;;;;;;;5.96;100.00;99488.81;7391123;19;20407;-51
2022/02/14 04:02:15;;;;;;;13.23;5.70;;;;;;;6.00;100.00;99485.53;7387285;19;20424;-56
2022/02/14 04:04:45;;;;;;;5.80;3.13;;;;;;;5.98;100.00;99484.63;7392680;19;20384;-53
2022/02/14 04:07:14;;;;;;;15.57;4.00;;;;;;;5.94;100.00;99467.38;7389441;19;20418;-53
2022/02/14 04:09:44;;;;;;;8.50;3.50;;;;;;;5.94;100.00;99472.50;7390425;19;20410;-52
2022/02/14 04:12:13;;;;;;;8.03;4.20;;;;;;;6.00;100.00;99464.19;7389308;19;20415;-50
2022/02/14 04:14:46;;;;;;;10.90;4.27;;;;;;;5.99;100.00;99462.47;7395323;19;20966;-55
2022/02/14 04:17:16;;;;;;;9.70;3.93;;;;;;;6.00;100.00;99454.81;7391729;19;20413;-55
2022/02/14 04:19:45;;;;;;;13.20;4.10;;;;;;;5.99;100.00;99460.75;7390206;19;20825;-52
2022/02/14 04:22:14;;;;;;;12.47;4.10;;;;;;;6.00;100.00;99459.94;7388923;19;20946;-54
2022/02/14 04:24:44;;;;;;;9.27;3.50;;;;;;;5.92;100.00;99463.88;7391986;19;20379;-52
2022/02/14 04:27:13;;;;;;;8.10;4.10;;;;;;;5.94;100.00;99454.56;7395028;19;20432;-49
2022/02/14 04:29:45;;;;;;;18.43;4.00;;;;;;;5.89;100.00;99453.53;7397216;19;20412;-48
2022/02/14 04:32:15;;;;;;;7.13;3.60;;;;;;;5.90;100.00;99447.59;7396182;19;20406;-53
2022/02/14 04:34:45;;;;;;;13.17;3.43;;;;;;;5.97;100.00;99449.59;7397493;19;20747;-55
2022/02/14 04:37:15;;;;;;;7.37;3.60;;;;;;;5.94;100.00;99440.09;7392316;19;20474;-55
2022/02/14 04:39:45;;;;;;;7.30;3.70;;;;;;;5.93;100.00;99445.16;7396664;19;20966;-52
2022/02/14 04:42:14;;;;;;;9.40;3.70;;;;;;;5.99;100.00;99441.97;7395605;19;20409;-49
2022/02/14 04:44:47;;;;;;;9.80;3.57;;;;;;;5.89;100.00;99433.91;7398562;19;20763;-55
2022/02/14 04:47:16;;;;;;;9.40;3.70;;;;;;;5.88;100.00;99444.97;7395614;19;20424;-52
2022/02/14 04:49:45;;;;;;;11.57;3.47;;;;;;;5.87;100.00;99434.66;7396503;19;20419;-51
2022/02/14 04:52:15;;;;;;;10.10;3.63;;;;;;;5.94;100.00;99439.22;7395114;19;20414;-56
2022/02/14 04:54:45;;;;;;;7.03;3.83;;;;;;;5.86;100.00;99433.81;7397118;19;20511;-50
2022/02/14 04:57:14;;;;;;;7.17;2.90;;;;;;;5.84;100.00;99432.00;7395284;19;20422;-54
2022/02/14 04:59:47;;;;;;;7.80;4.00;;;;;;;5.80;100.00;99434.41;7396515;19;20418;-54
2022/02/14 05:02:17;;;;;;;8.53;3.80;;;;;;;5.74;100.00;99431.63;7395264;19;20487;-58
2022/02/14 05:04:46;;;;;;;13.83;4.07;;;;;;;5.77;100.00;99421.50;7397948;19;20380;-54
2022/02/14 05:07:16;;;;;;;7.27;3.37;;;;;;;5.81;100.00;99425.06;7396144;19;20767;-53
2022/02/14 05:09:45;;;;;;;7.10;3.30;;;;;;;5.87;100.00;99421.88;7395945;19;20764;-54
2022/02/14 05:12:15;;;;;;;5.83;3.33;;;;;;;5.91;100.00;99424.59;7393145;19;20414;-55
2022/02/14 05:14:47;;;;;;;10.23;3.90;;;;;;;5.89;100.00;99422.81;7396912;19;20376;-53
2022/02/14 05:17:17;;;;;;;16.80;4.03;;;;;;;5.90;100.00;99416.88;7390582;19;20411;-58
2022/02/14 05:19:46;;;;;;;10.37;3.93;;;;;;;5.91;100.00;99414.34;7395743;19;20416;-54
2022/02/14 05:22:16;;;;;;;7.20;3.60;;;;;;;5.84;100.00;99412.38;7396125;19;20427;-54
2022/02/14 05:24:45;;;;;;;11.07;4.50;;;;;;;6.02;100.00;99412.28;7397418;19;20927;-51
2022/02/14 05:27:15;;;;;;;8.57;3.90;;;;;;;5.97;100.00;99411.19;7394266;19;20816;-50
2022/02/14 05:29:48;;;;;;;9.80;3.90;;;;;;;5.97;100.00;99408.63;7395150;19;20437;-53
2022/02/14 05:32:17;;;;;;;8.60;3.43;;;;;;;5.90;100.00;99404.09;7394277;19;20433;-53
2022/02/14 05:34:47;;;;;;;13.87;3.80;;;;;;;5.97;100.00;99406.06;7396297;19;20388;-55
2022/02/14 05:37:16;;;;;;;12.10;4.13;;;;;;;5.99;100.00;99399.31;7396252;19;21390;-51
2022/02/14 05:39:47;;;;;;;11.90;4.00;;;;;;;6.01;100.00;99401.94;7394654;19;20407;-50
2022/02/14 05:42:17;;;;;;;11.90;3.13;;;;;;;6.03;100.00;99398.66;7393492;19;20452;-56
2022/02/14 05:44:49;;;;;;;10.20;3.90;;;;;;;6.00;100.00;99400.19;7397104;19;20377;-56
2022/02/14 05:47:19;;;;;;;11.17;4.10;;;;;;;6.00;100.00;99393.34;7392848;19;20407;-55
2022/02/14 05:49:48;;;;;;;7.73;3.87;;;;;;;6.03;100.00;99387.53;7394578;19;20413;-54
2022/02/14 05:52:18;;;;;;;8.90;4.03;;;;;;;6.06;100.00;99388.50;7392683;19;20411;-56
2022/02/14 05:54:48;;;;;;;8.17;3.70;;;;;;;6.08;100.00;99389.47;7395701;19;20751;-50
2022/02/14 05:57:20;;;;;;;8.80;4.17;;;;;;;6.10;100.00;99393.75;7392967;19;20412;-55
2022/02/14 05:59:52;;;;;;;11.30;3.83;;;;;;;6.09;100.00;99385.19;7396657;19;20505;-53
2022/02/14 06:02:21;;;;;;;11.60;3.60;;;;;;;6.11;100.00;99383.59;7392221;19;20417;-51
2022/02/14 06:04:51;;;;;;;7.60;3.10;;;;;;;6.12;100.00;99384.44;7396120;19;20733;-50
2022/02/14 06:07:22;;;;;;;7.57;4.20;;;;;;;6.11;100.00;99395.50;7393706;19;20430;-55
2022/02/14 06:09:51;;;;;;;7.33;3.43;;;;;;;6.07;100.00;99384.28;7398426;19;20433;-57
2022/02/14 06:12:23;;;;;;;10.20;3.90;;;;;;;6.09;100.00;99392.88;7393037;19;20422;-51
2022/02/14 06:14:57;;;;;;;13.03;4.00;;;;;;;6.08;100.00;99381.78;7395302;19;20752;-55
2022/02/14 06:17:26;;;;;;;8.37;4.00;;;;;;;6.08;100.00;99392.03;7388183;19;20423;-50
2022/02/14 06:19:56;;;;;;;6.77;3.70;;;;;;;6.07;100.00;99392.81;7394007;19;20423;-49
2022/02/14 06:22:26;;;;;;;9.53;3.40;;;;;;;6.07;100.00;99399.63;7392576;19;20415;-55
2022/02/14 06:24:56;;;;;;;10.07;3.97;;;;;;;6.05;100.00;99396.16;7398890;19;20417;-56
2022/02/14 06:27:25;;;;;;;9.73;4.53;;;;;;;6.07;100.00;99404.75;7392100;19;20482;-56
2022/02/14 06:29:57;;;;;;;8.40;3.73;;;;;;;6.07;100.00;99404.75;7393525;19;20970;-54
2022/02/14 06:32:27;;;;;;;10.40;4.00;;;;;;;6.12;100.00;99403.25;7389305;19;20430;-52
2022/02/14 06:34:57;;;;;;;10.33;3.97;;;;;;;6.17;100.00;99400.84;7395234;19;20466;-57
2022/02/14 06:37:27;;;;;;;12.83;3.80;;;;;;;6.17;100.00;99401.75;7392074;19;20486;-51
2022/02/14 06:39:56;;;;;;;8.40;3.50;;;;;;;6.16;100.00;99397.41;7393225;19;20412;-55
2022/02/14 06:42:26;;;;;;;11.17;4.17;;;;;;;6.17;100.00;99399.19;7390941;19;20419;-58
2022/02/14 06:44:58;;;;;;;9.47;3.63;;;;;;;6.20;100.00;99406.06;7395029;19;20383;-50
2022/02/14 06:47:28;;;;;;;11.53;3.57;;;;;;;6.22;100.00;99405.31;7390521;19;20605;-57
2022/02/14 06:49:57;;;;;;;10.93;4.13;;;;;;;6.26;100.00;99402.91;7391278;19;20410;-57
2022/02/14 06:52:27;;;;;;;11.40;4.50;;;;;;;6.29;100.00;99400.44;7388775;19;20419;-56
2022/02/14 06:54:56;;;;;;;14.03;3.77;;;;;;;6.28;100.00;99403.81;7394458;19;20396;-56
2022/02/14 06:57:26;;;;;;;8.63;3.77;;;;;;;6.30;100.00;99407.31;7389897;19;20425;-51
2022/02/14 06:59:58;;;;;;;11.07;4.50;;;;;;;6.31;100.00;99401.38;7393173;19;20425;-54
2022/02/14 07:02:28;;;;;;;8.70;3.80;;;;;;;6.34;100.00;99404.03;7390762;19;20407;-49
2022/02/14 07:05:03;;;;;;;7.90;3.87;;;;;;;6.39;100.00;99402.53;7394681;19;20428;-52
2022/02/14 07:07:33;;;;;;;8.97;3.37;;;;;;;6.42;100.00;99396.66;7390906;19;20773;-56
2022/02/14 07:10:02;;;;;;;13.73;4.20;;;;;;;6.46;100.00;99404.50;7393229;19;20431;-53
2022/02/14 07:12:32;;;;;;;10.07;3.27;;;;;;;6.50;100.00;99404.63;7390697;19;20414;-59
2022/02/14 07:15:05;;;;;;;6.30;3.40;;;;;;;6.50;100.00;99405.47;7393756;19;20387;-56
2022/02/14 07:17:35;;;;;;;9.93;3.70;;;;;;;6.50;100.00;99400.34;7390648;19;20407;-56
2022/02/14 07:20:05;;;;;;;15.30;4.63;;;;;;;6.52;100.00;99392.72;7395470;19;20434;-52
2022/02/14 07:22:34;;;;;;;12.20;4.67;;;;;;;6.58;100.00;99386.16;7389063;19;20431;-53
2022/02/14 07:25:04;;;;;;;10.17;4.40;;;;;;;6.63;100.00;99386.31;7393598;19;20391;-50
2022/02/14 07:27:34;;;;;;;9.20;3.70;;;;;;;6.67;100.00;99379.59;7388117;19;20399;-53
2022/02/14 07:30:08;;;;;;;9.60;4.13;;;;;;;6.74;100.00;99387.56;7394835;19;20427;-57
2022/02/14 07:32:38;;;;;;;9.30;4.20;;;;;;;6.79;100.00;99382.59;7389829;19;20417;-54
2022/02/14 07:35:09;;;;;;;10.43;3.50;;;;;;;6.89;100.00;99389.75;7393399;19;20394;-59
2022/02/14 07:37:42;;;;;;;18.63;6.10;;;;;;;6.97;100.00;99387.47;7390198;19;20419;-57
2022/02/14 07:40:14;;;;;;;9.60;4.17;;;;;;;6.98;100.00;99396.06;7391470;19;20451;-56
2022/02/14 07:42:44;;;;;;;8.27;3.43;;;;;;;6.99;100.00;99395.22;7389564;19;20416;-55
2022/02/14 07:45:16;;;;;;;8.67;2.60;;;;;;;7.08;100.00;99389.53;7393373;19;20387;-55
2022/02/14 07:47:45;;;;;;;7.73;3.07;;;;;;;7.16;100.00;99398.38;7389849;19;20421;-54
2022/02/14 07:50:15;;;;;;;4.93;1.90;;;;;;;7.16;100.00;99399.25;7393891;19;20513;-51
2022/02/14 07:52:45;;;;;;;9.13;3.40;;;;;;;7.29;100.00;99404.78;7392517;19;20439;-54
2022/02/14 07:55:14;;;;;;;15.33;3.00;;;;;;;7.33;100.00;99410.91;7396238;19;20405;-59
2022/02/14 07:57:44;;;;;;;10.63;2.83;;;;;;;7.43;100.00;99382.13;7388100;19;20445;-54
2022/02/14 08:00:17;;;;;;;8.70;3.00;;;;;;;7.53;100.00;99383.31;7394561;19;20424;-54
2022/02/14 08:02:49;;;;;;;20.30;6.53;;;;;;;7.59;100.00;99398.91;7396923;19;20539;-55
2022/02/14 08:05:18;;;;;;;12.57;3.90;;;;;;;7.68;100.00;99393.19;7401752;19;20388;-51
2022/02/14 08:07:49;;;;;;;11.63;3.83;;;;;;;7.66;100.00;99390.59;7396207;19;20408;-52
2022/02/14 08:10:38;;;;;;;14.90;3.73;;;;;;;7.80;100.00;99390.16;7397351;19;20402;-57
2022/02/14 08:13:07;;;;;;;9.97;2.50;;;;;;;7.82;100.00;99398.75;7393921;19;20422;-58
2022/02/14 08:15:40;;;;;;;8.83;3.50;;;;;;;7.90;100.00;99394.72;7399086;19;20408;-51
2022/02/14 08:18:10;;;;;;;6.60;2.30;;;;;;;7.96;100.00;99389.78;7394786;19;20394;-56
2022/02/14 08:20:40;;;;;;;10.87;3.30;;;;;;;8.06;100.00;99387.50;7396839;19;20432;-54
2022/02/14 08:23:10;;;;;;;10.03;3.33;;;;;;;8.04;100.00;99396.84;7394648;19;20412;-54
2022/02/14 08:25:39;;;;;;;6.60;2.80;;;;;;;8.09;100.00;99396.16;7399230;19;20394;-52
2022/02/14 08:28:09;;;;;;;10.67;3.57;;;;;;;8.11;100.00;99391.94;7395474;19;20423;-55
2022/02/14 08:30:41;;;;;;;8.23;2.90;;;;;;;8.16;100.00;99374.09;7401204;19;20743;-56
2022/02/14 08:33:12;;;;;;;4.80;2.33;;;;;;;8.22;100.00;99384.53;7391880;19;20442;-55
2022/02/14 08:35:41;;;;;;;18.67;2.83;;;;;;;8.22;100.00;99381.97;7399029;19;20387;-58
2022/02/14 08:38:11;;;;;;;8.67;3.20;;;;;;;8.30;100.00;99383.94;7394935;19;20964;-53
2022/02/14 08:40:41;;;;;;;12.07;3.07;;;;;;;8.31;100.00;99390.81;7396586;19;20429;-52
2022/02/14 08:43:11;;;;;;;7.27;1.73;;;;;;;8.33;100.00;99389.13;7395453;19;20434;-51
2022/02/14 08:46:03;;;;;;;7.10;3.23;;;;;;;8.39;100.00;99379.03;7399208;19;20387;-49
2022/02/14 08:48:32;;;;;;;9.67;2.87;;;;;;;8.40;100.00;99375.63;7392300;19;20435;-52
2022/02/14 08:51:02;;;;;;;7.07;2.37;;;;;;;8.35;100.00;99372.94;7396727;19;20514;-57
2022/02/14 08:53:36;;;;;;;10.13;3.00;;;;;;;8.38;100.00;99367.00;7394860;19;20419;-56
2022/02/14 08:56:07;;;;;;;8.90;3.07;;;;;;;8.38;100.00;99379.88;7398156;19;20381;-58
2022/02/14 08:58:39;;;;;;;12.40;4.10;;;;;;;8.43;100.00;99370.59;7394483;19;20414;-52
2022/02/14 09:01:11;;;;;;;11.00;2.87;;;;;;;8.46;100.00;99360.38;7398718;19;20411;-54
2022/02/14 09:03:42;;;;;;;8.97;3.10;;;;;;;8.48;100.00;99363.88;7396392;19;20418;-51
2022/02/14 09:06:12;;;;;;;6.03;2.80;;;;;;;8.53;100.00;99370.88;7400526;19;20727;-57
2022/02/14 09:19:57;;;;;;;13.20;3.30;;;;;;;8.74;100.00;99360.31;7274628;19;2941029;-53
2022/02/14 09:22:27;;;;;;;5.70;2.77;;;;;;;8.75;100.00;99362.91;7425081;19;20193;-56
2022/02/14 09:24:56;;;;;;;9.17;2.40;;;;;;;8.86;100.00;99349.47;7429132;19;20375;-55
2022/02/14 09:27:26;;;;;;;6.50;2.00;;;;;;;8.94;100.00;99342.84;7422598;19;20428;-52
2022/02/14 09:29:55;;;;;;;10.13;3.03;;;;;;;8.98;100.00;99352.34;7428878;19;20427;-52
2022/02/14 09:32:26;;;;;;;3.87;1.90;;;;;;;9.03;100.00;99350.78;7425060;19;20425;-57
2022/02/14 09:34:58;;;;;;;4.30;1.83;;;;;;;9.11;100.00;99360.38;7430488;19;20391;-52
2022/02/14 09:37:27;;;;;;;12.70;2.40;;;;;;;9.16;100.00;99354.53;7425297;19;20414;-51
2022/02/14 09:40:01;;;;;;;5.73;2.50;;;;;;;9.32;100.00;99348.06;7423691;19;20418;-52
2022/02/14 09:42:31;;;;;;;9.80;2.40;;;;;;;9.34;100.00;99352.38;7424036;19;20443;-53
2022/02/14 09:45:00;;;;;;;10.13;2.60;;;;;;;9.37;100.00;99352.44;7428811;19;20398;-59
2022/02/14 09:47:30;;;;;;;5.10;2.50;;;;;;;9.40;100.00;99342.22;7424247;19;20513;-54
2022/02/14 09:50:02;;;;;;;9.60;2.10;;;;;;;9.48;100.00;99350.13;7424086;19;20414;-56
2022/02/14 09:52:31;;;;;;;13.17;2.97;;;;;;;9.67;100.00;99352.31;7425216;19;20946;-56
2022/02/14 09:55:01;;;;;;;4.47;1.60;;;;;;;9.62;100.00;99355.59;7427526;19;20394;-52
2022/02/14 09:57:30;;;;;;;7.80;2.20;;;;;;;9.67;100.00;99349.72;7425404;19;20402;-49
2022/02/14 10:00:00;;;;;;;4.33;1.50;;;;;;;9.74;100.00;99350.72;7423873;19;20418;-58
2022/02/14 10:02:32;;;;;;;4.80;2.13;;;;;;;9.68;100.00;99348.00;7420779;19;20426;-54
2022/02/14 10:05:07;;;;;;;5.13;2.10;;;;;;;9.83;100.00;99334.59;7419757;19;20752;-54
2022/02/14 10:07:41;;;;;;;7.73;2.30;;;;;;;9.81;100.00;99350.06;7431504;19;20720;-53
2022/02/14 10:10:18;;;;;;;3.53;1.47;;;;;;;9.85;100.00;99349.25;7421990;19;20418;-54
2022/02/14 10:12:49;;;;;;;2.90;1.20;;;;;;;9.97;100.00;99355.53;7427724;19;20391;-53
2022/02/14 10:15:19;;;;;;;5.40;1.10;;;;;;;9.90;100.00;99344.19;7423557;19;20417;-54
2022/02/14 10:17:51;;;;;;;8.93;1.70;;;;;;;9.91;100.00;99363.13;7428103;19;20917;-54
2022/02/14 10:20:25;;;;;;;4.87;2.20;;;;;;;10.05;100.00;99347.97;7398505;19;21013;-51
2022/02/14 10:23:00;;;;;;;4.50;2.10;;;;;;;10.07;100.00;99356.59;7399539;19;20388;-50
2022/02/14 10:25:30;;;;;;;9.73;2.47;;;;;;;10.03;100.00;99350.50;7395074;19;20952;-53
2022/02/14 10:28:15;;;;;;;3.17;1.20;;;;;;;10.00;100.00;99348.72;7397856;19;20402;-56
2022/02/14 10:31:02;;;;;;;4.17;2.03;;;;;;;10.03;100.00;99350.50;7394938;19;20408;-53
2022/02/14 10:33:49;;;;;;;6.00;2.00;;;;;;;10.12;100.00;99363.56;7395974;19;20396;-57
2022/02/14 10:36:32;;;;;;;6.33;2.20;;;;;;;10.06;100.00;99376.31;7401776;19;20453;-58
2022/02/14 10:39:11;;;;;;;4.03;1.70;;;;;;;10.13;100.00;99355.03;7393098;19;20409;-48
2022/02/14 10:41:40;;;;;;;6.53;1.53;;;;;;;10.26;100.00;99358.72;7398098;19;20387;-54
2022/02/14 10:45:07;;;;;;;4.50;1.80;;;;;;;10.34;100.00;99356.31;7394287;19;20414;-56
2022/02/14 10:47:08;;;;;;;5.10;2.23;;;;;;;10.31;100.00;99353.66;7397302;19;20931;-55
2022/02/14 10:49:38;;;;;;;6.30;2.50;;;;;;;10.32;100.00;99360.56;7392370;19;20486;-55
2022/02/14 10:52:12;;;;;;;4.33;2.13;;;;;;;10.39;100.00;99359.84;7397080;19;20443;-55
2022/02/14 10:54:44;;;;;;;4.90;1.60;;;;;;;10.51;100.00;99368.72;7394369;19;20491;-54
2022/02/14 10:57:27;;;;;;;5.37;2.60;;;;;;;10.51;100.00;99363.53;7397093;19;20383;-57
2022/02/14 11:00:05;;;;;;;6.00;1.77;;;;;;;10.46;100.00;99371.16;7392449;19;20782;-50
2022/02/14 11:02:35;;;;;;;7.67;2.40;;;;;;;10.33;100.00;99372.63;7397375;19;20400;-56
2022/02/14 11:05:05;;;;;;;6.70;1.83;;;;;;;10.37;100.00;99363.22;7391439;19;20429;-56
2022/02/14 11:07:38;;;;;;;5.10;2.00;;;;;;;10.62;100.00;99369.75;7397204;19;20384;-51
2022/02/14 11:10:10;;;;;;;6.47;2.10;;;;;;;10.63;100.00;99365.47;7392214;19;20482;-54
2022/02/14 11:12:41;;;;;;;9.43;1.87;;;;;;;10.76;100.00;99364.88;7397243;19;20463;-53
2022/02/14 11:15:12;;;;;;;4.83;1.60;;;;;;;10.80;100.00;99365.78;7389773;19;20495;-55
2022/02/14 11:17:47;;;;;;;4.37;2.00;;;;;;;10.79;100.00;99349.47;7398394;19;20405;-57
2022/02/14 11:20:18;;;;;;;7.00;1.63;;;;;;;10.82;100.00;99384.75;7393206;19;20440;-56
2022/02/14 11:22:52;;;;;;;7.03;1.87;;;;;;;10.85;100.00;99374.50;7388145;19;20419;-47
2022/02/14 11:25:26;;;;;;;3.40;1.53;;;;;;;10.79;100.00;99374.38;7394364;19;20448;-51
2022/02/14 11:28:00;;;;;;;4.07;1.83;;;;;;;10.72;100.00;99372.53;7397479;19;20404;-52
2022/02/14 11:30:31;;;;;;;6.63;1.77;;;;;;;10.83;100.00;99376.19;7393750;19;20999;-49
2022/02/14 11:33:09;;;;;;;3.80;1.50;;;;;;;10.86;100.00;99355.59;7397175;19;20411;-47
2022/02/14 11:35:39;;;;;;;4.93;1.90;;;;;;;10.89;100.00;99371.16;7395500;19;20443;-50
2022/02/14 11:38:11;;;;;;;5.40;1.77;;;;;;;10.96;100.00;99364.38;7395368;19;20929;-57
2022/02/14 11:40:44;;;;;;;7.97;2.10;;;;;;;10.93;100.00;99378.06;7394526;19;21278;-48
2022/02/14 11:43:19;;;;;;;4.47;1.90;;;;;;;10.78;100.00;99373.50;7395759;19;20821;-50
2022/02/14 11:46:18;;;;;;;6.00;1.90;;;;;;;10.73;100.00;99363.94;7392904;19;20529;-48
2022/02/14 11:48:55;;;;;;;3.40;1.67;;;;;;;10.80;100.00;99373.53;7390231;19;20439;-49
2022/02/14 11:51:27;;;;;;;6.33;2.00;;;;;;;10.85;100.00;99364.19;7393540;19;20914;-50
2022/02/14 11:53:59;;;;;;;6.50;2.00;;;;;;;10.92;100.00;99365.16;7394527;19;20410;-57
2022/02/14 11:56:30;;;;;;;5.20;1.80;;;;;;;11.13;100.00;99371.53;7397700;19;20796;-48
2022/02/14 11:59:11;;;;;;;2.70;1.27;;;;;;;10.92;100.00;99370.34;7389665;19;20421;-55
2022/02/14 12:02:01;;;;;;;9.40;2.27;;;;;;;11.00;100.00;99367.88;7397942;19;20421;-52